Terminal Aerodrome Forecast
Issued by NWS

Home | Current Version | Previous Version | Text Only | Print | Product List | Glossary On
Versions: 1 2 3 4 5 6 7 8 9 10 11 12 13 14 15 16
000
FTUS45 KBOI 191138
TAFJER
TAF
KJER 191138Z 1912/2012 09007KT P6SM BKN200
     FM192200 26010KT P6SM FEW090 SCT200
     FM200500 28015G25KT P6SM SCT200=

USA.gov is the U.S. government's official web portal to all federal, state and local government web resources and services.